Terminal Aerodrome Forecast
Issued by NWS Lake Charles, LA

Home | Current Version | Previous Version | Text Only | Print | Product List | Glossary On
Versions: 1 2 3 4 5 6 7 8 9 10 11 12
000
FTUS44 KLCH 010520
TAFAEX
TAF
KAEX 010520Z 0106/0206 VRB03KT P6SM BKN250
     FM010900 00000KT 5SM BR FEW025 BKN250
     FM011400 VRB05KT P6SM SCT035 BKN250
     FM011800 18006KT P6SM VCSH SCT050 BKN200 PROB30 0118/0124 4SM
      SHRA SCT020 BKN035
     FM020100 VRB03KT P6SM FEW050 BKN250=

USA.gov is the U.S. government's official web portal to all federal, state and local government web resources and services.